Date,TemperatureHighF,TemperatureAvgF,TemperatureLowF,DewpointHighF,DewpointAvgF,DewpointLowF,HumidityHigh,HumidityAvg,HumidityLow,PressureMaxIn,PressureMinIn,WindSpeedMaxMPH,WindSpeedAvgMPH,GustSpeedMaxMPH,PrecipitationSumIn
2013-2-1,64.7,56.2,48.5,48.0,44.7,42.0,90,66,52,30.20,30.10,12,3,16,0.00
2013-2-2,59.3,49.3,45.4,50.0,46.4,44.0,96,90,70,30.28,30.20,6,2,10,0.00
2013-2-3,58.3,49.8,43.5,48.0,44.1,41.0,93,81,64,30.24,30.13,6,1,8,0.00
2013-2-4,55.6,48.7,46.1,49.0,46.5,45.0,96,92,79,30.16,30.06,6,2,10,0.00
2013-2-5,56.6,49.3,45.3,48.0,44.4,42.0,91,83,71,30.14,30.06,10,2,16,0.00
2013-2-6,57.5,48.7,42.5,46.0,41.7,39.0,90,77,57,30.19,30.11,9,2,10,0.01
2013-2-7,55.1,48.1,43.4,46.0,42.0,36.0,94,80,51,30.16,29.98,11,4,15,0.19
2013-2-8,54.5,46.3,39.9,42.0,39.8,37.0,95,79,55,30.01,29.93,7,2,11,0.05
2013-2-9,59.2,48.3,40.5,39.0,33.4,26.0,79,59,30,30.07,29.98,8,2,9,0.00
2013-2-10,60.8,49.0,39.1,43.0,37.8,32.0,85,67,46,30.11,30.01,6,2,8,0.00
2013-2-11,65.0,52.1,44.0,47.0,36.6,27.0,94,60,28,30.22,30.06,9,3,12,0.00
2013-2-12,63.2,50.7,42.9,47.0,42.9,37.0,95,77,39,30.34,30.22,9,2,11,0.00
2013-2-13,58.8,48.7,43.7,49.0,45.2,42.0,96,88,66,30.33,30.20,10,2,12,0.00
2013-2-14,69.9,55.3,43.8,50.0,45.1,42.0,97,73,41,30.23,30.14,7,1,10,0.01
2013-2-15,71.1,62.4,51.5,45.0,39.2,35.0,63,43,36,30.25,30.18,14,3,18,0.00
2013-2-16,70.5,58.8,48.4,50.0,46.0,40.0,91,64,43,30.21,30.03,10,2,12,0.00
2013-2-17,59.6,51.2,45.9,48.0,45.7,44.0,94,82,57,30.04,29.95,8,3,12,0.00
2013-2-18,52.1,47.9,45.1,44.0,41.3,37.0,92,78,65,30.02,29.95,16,7,21,0.00
2013-2-19,47.5,44.4,40.4,44.0,38.7,34.0,93,80,64,29.96,29.74,13,5,19,0.32
2013-2-20,58.3,46.8,38.1,42.0,37.1,33.0,84,71,47,30.05,29.84,8,3,12,0.00
2013-2-21,59.9,48.4,39.9,40.0,36.4,31.0,85,66,36,30.16,30.04,8,3,15,0.00
2013-2-22,58.9,49.8,42.1,46.0,42.3,37.0,88,76,52,30.24,30.16,14,3,18,0.00
2013-2-23,57.5,50.1,44.6,47.0,39.1,33.0,91,68,41,30.25,30.15,10,4,17,0.00
2013-2-24,63.2,51.0,42.2,44.0,34.1,25.0,89,56,25,30.24,30.16,8,3,17,0.00
2013-2-25,62.0,51.2,44.3,48.0,44.1,41.0,93,78,56,30.26,30.15,9,2,11,0.00
2013-2-26,66.7,52.7,43.8,45.0,35.3,23.0,81,55,20,30.20,30.12,10,3,11,0.00
2013-2-27,63.9,52.5,43.2,47.0,42.7,35.0,86,70,50,30.35,30.20,7,2,12,0.00
2013-2-28,62.9,53.8,47.7,54.0,49.1,45.0,95,84,67,30.44,30.35,10,2,13,0.00